sensor_id;sensor_type;location;lat;lon;timestamp;P1;durP1;ratioP1;P2;durP2;ratioP2
2840;SDS011;53423;49.224;12.074;2022-12-24T00:01:20;1.77;;;0.87;;
2840;SDS011;53423;49.224;12.074;2022-12-24T00:03:48;2.23;;;1.40;;
2840;SDS011;53423;49.224;12.074;2022-12-24T00:06:17;4.93;;;1.30;;
2840;SDS011;53423;49.224;12.074;2022-12-24T00:08:47;1.60;;;1.10;;
2840;SDS011;53423;49.224;12.074;2022-12-24T00:11:16;2.40;;;1.20;;
2840;SDS011;53423;49.224;12.074;2022-12-24T00:13:44;1.57;;;1.20;;
2840;SDS011;53423;49.224;12.074;2022-12-24T00:16:12;5.53;;;1.60;;
2840;SDS011;53423;49.224;12.074;2022-12-24T00:18:42;2.73;;;1.50;;
2840;SDS011;53423;49.224;12.074;2022-12-24T00:21:12;3.77;;;1.73;;
2840;SDS011;53423;49.224;12.074;2022-12-24T00:23:41;5.93;;;1.70;;
2840;SDS011;53423;49.224;12.074;2022-12-24T00:26:10;3.00;;;1.40;;
2840;SDS011;53423;49.224;12.074;2022-12-24T00:28:38;4.40;;;1.40;;
2840;SDS011;53423;49.224;12.074;2022-12-24T00:31:07;5.23;;;1.53;;
2840;SDS011;53423;49.224;12.074;2022-12-24T00:33:37;4.63;;;1.53;;
2840;SDS011;53423;49.224;12.074;2022-12-24T00:36:07;4.70;;;1.73;;
2840;SDS011;53423;49.224;12.074;2022-12-24T00:38:35;3.07;;;1.87;;
2840;SDS011;53423;49.224;12.074;2022-12-24T00:41:04;6.37;;;1.80;;
2840;SDS011;53423;49.224;12.074;2022-12-24T00:43:50;5.67;;;1.80;;
2840;SDS011;53423;49.224;12.074;2022-12-24T00:46:19;4.57;;;1.70;;
2840;SDS011;53423;49.224;12.074;2022-12-24T00:48:47;2.63;;;1.43;;
2840;SDS011;53423;49.224;12.074;2022-12-24T00:51:16;4.83;;;1.70;;
2840;SDS011;53423;49.224;12.074;2022-12-24T00:53:45;5.50;;;1.80;;
2840;SDS011;53423;49.224;12.074;2022-12-24T00:56:13;6.10;;;1.73;;
2840;SDS011;53423;49.224;12.074;2022-12-24T00:58:41;4.03;;;1.87;;
2840;SDS011;53423;49.224;12.074;2022-12-24T01:01:10;8.00;;;2.07;;
2840;SDS011;53423;49.224;12.074;2022-12-24T01:03:38;5.63;;;1.57;;
2840;SDS011;53423;49.224;12.074;2022-12-24T01:06:07;3.70;;;1.60;;
2840;SDS011;53423;49.224;12.074;2022-12-24T01:08:38;7.03;;;2.50;;
2840;SDS011;53423;49.224;12.074;2022-12-24T01:11:07;6.17;;;2.00;;
2840;SDS011;53423;49.224;12.074;2022-12-24T01:13:37;2.87;;;1.70;;
2840;SDS011;53423;49.224;12.074;2022-12-24T01:16:12;4.70;;;1.90;;
2840;SDS011;53423;49.224;12.074;2022-12-24T01:18:41;4.53;;;2.23;;
2840;SDS011;53423;49.224;12.074;2022-12-24T01:21:09;4.20;;;1.90;;
2840;SDS011;53423;49.224;12.074;2022-12-24T01:23:38;5.10;;;2.30;;
2840;SDS011;53423;49.224;12.074;2022-12-24T01:26:06;4.30;;;1.90;;
2840;SDS011;53423;49.224;12.074;2022-12-24T01:28:34;7.90;;;2.10;;
2840;SDS011;53423;49.224;12.074;2022-12-24T01:31:08;5.77;;;2.13;;
2840;SDS011;53423;49.224;12.074;2022-12-24T01:33:37;5.03;;;1.97;;
2840;SDS011;53423;49.224;12.074;2022-12-24T01:36:05;4.77;;;1.83;;
2840;SDS011;53423;49.224;12.074;2022-12-24T01:38:33;4.30;;;1.60;;
2840;SDS011;53423;49.224;12.074;2022-12-24T01:41:03;4.97;;;1.70;;
2840;SDS011;53423;49.224;12.074;2022-12-24T01:43:49;3.33;;;1.90;;
2840;SDS011;53423;49.224;12.074;2022-12-24T01:46:18;5.63;;;1.90;;
2840;SDS011;53423;49.224;12.074;2022-12-24T01:48:50;5.00;;;1.70;;
2840;SDS011;53423;49.224;12.074;2022-12-24T01:51:23;3.70;;;1.83;;
2840;SDS011;53423;49.224;12.074;2022-12-24T01:53:56;5.03;;;1.93;;
2840;SDS011;53423;49.224;12.074;2022-12-24T01:56:28;5.53;;;2.00;;
2840;SDS011;53423;49.224;12.074;2022-12-24T01:58:59;4.03;;;2.07;;
2840;SDS011;53423;49.224;12.074;2022-12-24T02:01:31;4.97;;;1.80;;
2840;SDS011;53423;49.224;12.074;2022-12-24T02:04:00;8.20;;;2.17;;
2840;SDS011;53423;49.224;12.074;2022-12-24T02:06:35;4.03;;;2.00;;
2840;SDS011;53423;49.224;12.074;2022-12-24T02:09:03;4.23;;;1.77;;
2840;SDS011;53423;49.224;12.074;2022-12-24T02:11:33;5.80;;;2.10;;
2840;SDS011;53423;49.224;12.074;2022-12-24T02:14:05;5.07;;;2.30;;
2840;SDS011;53423;49.224;12.074;2022-12-24T02:16:35;3.23;;;2.03;;
2840;SDS011;53423;49.224;12.074;2022-12-24T02:19:14;5.90;;;2.00;;
2840;SDS011;53423;49.224;12.074;2022-12-24T02:22:08;5.03;;;2.03;;
2840;SDS011;53423;49.224;12.074;2022-12-24T02:24:52;5.50;;;2.37;;
2840;SDS011;53423;49.224;12.074;2022-12-24T02:27:43;4.17;;;1.83;;
2840;SDS011;53423;49.224;12.074;2022-12-24T02:30:22;5.10;;;1.80;;
2840;SDS011;53423;49.224;12.074;2022-12-24T02:32:55;6.77;;;2.40;;
2840;SDS011;53423;49.224;12.074;2022-12-24T02:35:32;5.37;;;1.67;;
2840;SDS011;53423;49.224;12.074;2022-12-24T02:38:07;3.57;;;2.00;;
2840;SDS011;53423;49.224;12.074;2022-12-24T02:40:42;3.40;;;1.60;;
2840;SDS011;53423;49.224;12.074;2022-12-24T02:43:16;5.93;;;1.97;;
2840;SDS011;53423;49.224;12.074;2022-12-24T02:45:51;7.10;;;2.07;;
2840;SDS011;53423;49.224;12.074;2022-12-24T02:48:25;6.00;;;2.17;;
2840;SDS011;53423;49.224;12.074;2022-12-24T02:51:01;3.70;;;1.67;;
2840;SDS011;53423;49.224;12.074;2022-12-24T02:53:30;7.43;;;2.33;;
2840;SDS011;53423;49.224;12.074;2022-12-24T02:56:14;5.37;;;2.00;;
2840;SDS011;53423;49.224;12.074;2022-12-24T02:59:08;4.87;;;2.23;;
2840;SDS011;53423;49.224;12.074;2022-12-24T03:01:49;3.70;;;1.70;;
2840;SDS011;53423;49.224;12.074;2022-12-24T03:04:28;3.00;;;1.47;;
2840;SDS011;53423;49.224;12.074;2022-12-24T03:07:13;5.60;;;1.80;;
2840;SDS011;53423;49.224;12.074;2022-12-24T03:09:54;7.47;;;1.97;;
2840;SDS011;53423;49.224;12.074;2022-12-24T03:12:30;8.10;;;1.87;;
2840;SDS011;53423;49.224;12.074;2022-12-24T03:15:01;8.90;;;2.00;;
2840;SDS011;53423;49.224;12.074;2022-12-24T03:17:32;5.80;;;2.00;;
2840;SDS011;53423;49.224;12.074;2022-12-24T03:20:03;7.07;;;2.33;;
2840;SDS011;53423;49.224;12.074;2022-12-24T03:22:32;5.37;;;2.10;;
2840;SDS011;53423;49.224;12.074;2022-12-24T03:25:01;5.73;;;2.23;;
2840;SDS011;53423;49.224;12.074;2022-12-24T03:27:31;5.23;;;2.00;;
2840;SDS011;53423;49.224;12.074;2022-12-24T03:30:03;5.93;;;2.03;;
2840;SDS011;53423;49.224;12.074;2022-12-24T03:32:35;3.60;;;1.83;;
2840;SDS011;53423;49.224;12.074;2022-12-24T03:35:04;3.93;;;1.80;;
2840;SDS011;53423;49.224;12.074;2022-12-24T03:37:34;4.23;;;2.03;;
2840;SDS011;53423;49.224;12.074;2022-12-24T03:40:03;3.70;;;2.00;;
2840;SDS011;53423;49.224;12.074;2022-12-24T03:42:31;2.80;;;1.93;;
2840;SDS011;53423;49.224;12.074;2022-12-24T03:44:59;4.80;;;2.07;;
2840;SDS011;53423;49.224;12.074;2022-12-24T03:47:27;5.23;;;2.37;;
2840;SDS011;53423;49.224;12.074;2022-12-24T03:49:56;4.23;;;1.90;;
2840;SDS011;53423;49.224;12.074;2022-12-24T03:52:24;5.20;;;2.00;;
2840;SDS011;53423;49.224;12.074;2022-12-24T03:54:52;5.87;;;1.60;;
2840;SDS011;53423;49.224;12.074;2022-12-24T03:57:20;4.87;;;2.40;;
2840;SDS011;53423;49.224;12.074;2022-12-24T03:59:48;2.47;;;1.57;;
2840;SDS011;53423;49.224;12.074;2022-12-24T04:02:16;5.30;;;2.30;;
2840;SDS011;53423;49.224;12.074;2022-12-24T04:04:45;4.20;;;1.80;;
2840;SDS011;53423;49.224;12.074;2022-12-24T04:07:14;6.07;;;2.30;;
2840;SDS011;53423;49.224;12.074;2022-12-24T04:09:42;4.47;;;2.00;;
2840;SDS011;53423;49.224;12.074;2022-12-24T04:12:10;6.40;;;2.23;;
2840;SDS011;53423;49.224;12.074;2022-12-24T04:14:38;5.17;;;1.90;;
2840;SDS011;53423;49.224;12.074;2022-12-24T04:17:06;7.27;;;1.90;;
2840;SDS011;53423;49.224;12.074;2022-12-24T04:19:34;5.00;;;1.97;;
2840;SDS011;53423;49.224;12.074;2022-12-24T04:22:02;4.13;;;2.20;;
2840;SDS011;53423;49.224;12.074;2022-12-24T04:24:31;4.43;;;2.10;;
2840;SDS011;53423;49.224;12.074;2022-12-24T04:26:59;5.87;;;2.17;;
2840;SDS011;53423;49.224;12.074;2022-12-24T04:29:27;5.90;;;1.90;;
2840;SDS011;53423;49.224;12.074;2022-12-24T04:31:55;5.60;;;2.10;;
2840;SDS011;53423;49.224;12.074;2022-12-24T04:34:23;5.00;;;2.10;;
2840;SDS011;53423;49.224;12.074;2022-12-24T04:36:51;3.73;;;1.63;;
2840;SDS011;53423;49.224;12.074;2022-12-24T04:39:19;6.33;;;2.20;;
2840;SDS011;53423;49.224;12.074;2022-12-24T04:41:48;5.23;;;2.10;;
2840;SDS011;53423;49.224;12.074;2022-12-24T04:44:16;6.07;;;2.00;;
2840;SDS011;53423;49.224;12.074;2022-12-24T04:46:44;3.93;;;1.80;;
2840;SDS011;53423;49.224;12.074;2022-12-24T04:49:12;6.30;;;2.10;;
2840;SDS011;53423;49.224;12.074;2022-12-24T04:51:40;6.30;;;2.07;;
2840;SDS011;53423;49.224;12.074;2022-12-24T04:54:08;6.43;;;2.10;;
2840;SDS011;53423;49.224;12.074;2022-12-24T04:56:36;5.80;;;2.50;;
2840;SDS011;53423;49.224;12.074;2022-12-24T04:59:05;4.97;;;1.70;;
2840;SDS011;53423;49.224;12.074;2022-12-24T05:01:34;4.80;;;2.03;;
2840;SDS011;53423;49.224;12.074;2022-12-24T05:04:02;6.13;;;2.17;;
2840;SDS011;53423;49.224;12.074;2022-12-24T05:06:32;4.87;;;2.07;;
2840;SDS011;53423;49.224;12.074;2022-12-24T05:09:01;5.00;;;2.20;;
2840;SDS011;53423;49.224;12.074;2022-12-24T05:11:29;6.67;;;2.20;;
2840;SDS011;53423;49.224;12.074;2022-12-24T05:13:57;4.77;;;1.80;;
2840;SDS011;53423;49.224;12.074;2022-12-24T05:16:26;5.17;;;2.00;;
2840;SDS011;53423;49.224;12.074;2022-12-24T05:18:54;2.97;;;1.63;;
2840;SDS011;53423;49.224;12.074;2022-12-24T05:21:23;6.60;;;2.40;;
2840;SDS011;53423;49.224;12.074;2022-12-24T05:23:51;4.93;;;2.10;;
2840;SDS011;53423;49.224;12.074;2022-12-24T05:26:38;5.63;;;1.90;;
2840;SDS011;53423;49.224;12.074;2022-12-24T05:29:08;6.00;;;2.00;;
2840;SDS011;53423;49.224;12.074;2022-12-24T05:31:40;5.23;;;2.00;;
2840;SDS011;53423;49.224;12.074;2022-12-24T05:34:08;6.63;;;2.10;;
2840;SDS011;53423;49.224;12.074;2022-12-24T05:36:37;7.63;;;2.10;;
2840;SDS011;53423;49.224;12.074;2022-12-24T05:39:05;5.43;;;2.00;;
2840;SDS011;53423;49.224;12.074;2022-12-24T05:41:41;7.20;;;2.77;;
2840;SDS011;53423;49.224;12.074;2022-12-24T05:44:09;6.00;;;2.10;;
2840;SDS011;53423;49.224;12.074;2022-12-24T05:46:37;5.23;;;2.33;;
2840;SDS011;53423;49.224;12.074;2022-12-24T05:49:06;6.20;;;2.00;;
2840;SDS011;53423;49.224;12.074;2022-12-24T05:51:34;6.07;;;2.13;;
2840;SDS011;53423;49.224;12.074;2022-12-24T05:54:03;6.20;;;2.70;;
2840;SDS011;53423;49.224;12.074;2022-12-24T05:56:31;5.67;;;2.20;;
2840;SDS011;53423;49.224;12.074;2022-12-24T05:58:59;4.90;;;2.20;;
2840;SDS011;53423;49.224;12.074;2022-12-24T06:01:27;5.50;;;1.93;;
2840;SDS011;53423;49.224;12.074;2022-12-24T06:03:55;5.83;;;1.83;;
2840;SDS011;53423;49.224;12.074;2022-12-24T06:06:26;6.43;;;2.23;;
2840;SDS011;53423;49.224;12.074;2022-12-24T06:08:54;6.03;;;2.17;;
2840;SDS011;53423;49.224;12.074;2022-12-24T06:11:23;5.90;;;2.03;;
2840;SDS011;53423;49.224;12.074;2022-12-24T06:13:53;6.60;;;2.13;;
2840;SDS011;53423;49.224;12.074;2022-12-24T06:16:21;6.00;;;2.30;;
2840;SDS011;53423;49.224;12.074;2022-12-24T06:18:50;5.37;;;2.00;;
2840;SDS011;53423;49.224;12.074;2022-12-24T06:21:18;7.07;;;2.27;;
2840;SDS011;53423;49.224;12.074;2022-12-24T06:23:48;5.17;;;2.23;;
2840;SDS011;53423;49.224;12.074;2022-12-24T06:26:16;6.17;;;2.63;;
2840;SDS011;53423;49.224;12.074;2022-12-24T06:28:46;4.50;;;2.60;;
2840;SDS011;53423;49.224;12.074;2022-12-24T06:31:16;6.43;;;2.80;;
2840;SDS011;53423;49.224;12.074;2022-12-24T06:33:47;5.50;;;2.60;;
2840;SDS011;53423;49.224;12.074;2022-12-24T06:36:16;6.27;;;2.80;;
2840;SDS011;53423;49.224;12.074;2022-12-24T06:38:48;5.00;;;2.60;;
2840;SDS011;53423;49.224;12.074;2022-12-24T06:41:16;6.83;;;2.10;;
2840;SDS011;53423;49.224;12.074;2022-12-24T06:43:45;6.00;;;2.57;;
2840;SDS011;53423;49.224;12.074;2022-12-24T06:46:15;5.20;;;2.00;;
2840;SDS011;53423;49.224;12.074;2022-12-24T06:48:44;5.67;;;2.17;;
2840;SDS011;53423;49.224;12.074;2022-12-24T06:51:13;5.30;;;2.77;;
2840;SDS011;53423;49.224;12.074;2022-12-24T06:53:42;7.70;;;3.17;;
2840;SDS011;53423;49.224;12.074;2022-12-24T06:56:12;5.37;;;2.60;;
2840;SDS011;53423;49.224;12.074;2022-12-24T06:58:41;6.37;;;2.63;;
2840;SDS011;53423;49.224;12.074;2022-12-24T07:01:09;6.10;;;2.40;;
2840;SDS011;53423;49.224;12.074;2022-12-24T07:03:39;6.07;;;2.43;;
2840;SDS011;53423;49.224;12.074;2022-12-24T07:06:09;8.43;;;2.73;;
2840;SDS011;53423;49.224;12.074;2022-12-24T07:08:41;4.67;;;2.40;;
2840;SDS011;53423;49.224;12.074;2022-12-24T07:11:09;8.07;;;2.77;;
2840;SDS011;53423;49.224;12.074;2022-12-24T07:13:38;6.63;;;2.67;;
2840;SDS011;53423;49.224;12.074;2022-12-24T07:16:06;7.80;;;3.27;;
2840;SDS011;53423;49.224;12.074;2022-12-24T07:18:35;6.37;;;2.80;;
2840;SDS011;53423;49.224;12.074;2022-12-24T07:21:03;6.63;;;2.60;;
2840;SDS011;53423;49.224;12.074;2022-12-24T07:23:32;5.30;;;2.40;;
2840;SDS011;53423;49.224;12.074;2022-12-24T07:26:01;6.43;;;2.77;;
2840;SDS011;53423;49.224;12.074;2022-12-24T07:28:31;7.80;;;2.97;;
2840;SDS011;53423;49.224;12.074;2022-12-24T07:31:00;8.10;;;2.87;;
2840;SDS011;53423;49.224;12.074;2022-12-24T07:33:29;7.17;;;2.90;;
2840;SDS011;53423;49.224;12.074;2022-12-24T07:35:57;9.13;;;2.93;;
2840;SDS011;53423;49.224;12.074;2022-12-24T07:38:26;6.53;;;3.30;;
2840;SDS011;53423;49.224;12.074;2022-12-24T07:40:55;8.43;;;3.17;;
2840;SDS011;53423;49.224;12.074;2022-12-24T07:43:23;8.20;;;3.70;;
2840;SDS011;53423;49.224;12.074;2022-12-24T07:45:53;5.43;;;3.47;;
2840;SDS011;53423;49.224;12.074;2022-12-24T07:48:24;5.03;;;2.83;;
2840;SDS011;53423;49.224;12.074;2022-12-24T07:50:52;6.70;;;3.07;;
2840;SDS011;53423;49.224;12.074;2022-12-24T07:53:22;9.27;;;3.20;;
2840;SDS011;53423;49.224;12.074;2022-12-24T07:55:51;5.07;;;2.80;;
2840;SDS011;53423;49.224;12.074;2022-12-24T07:58:19;6.40;;;3.20;;
2840;SDS011;53423;49.224;12.074;2022-12-24T08:00:47;7.13;;;3.17;;
2840;SDS011;53423;49.224;12.074;2022-12-24T08:03:15;10.33;;;2.93;;
2840;SDS011;53423;49.224;12.074;2022-12-24T08:05:46;9.70;;;3.37;;
2840;SDS011;53423;49.224;12.074;2022-12-24T08:08:15;7.17;;;3.00;;
2840;SDS011;53423;49.224;12.074;2022-12-24T08:10:43;7.80;;;2.70;;
2840;SDS011;53423;49.224;12.074;2022-12-24T08:13:12;9.37;;;3.33;;
2840;SDS011;53423;49.224;12.074;2022-12-24T08:15:40;9.37;;;3.60;;
2840;SDS011;53423;49.224;12.074;2022-12-24T08:18:08;6.67;;;2.80;;
2840;SDS011;53423;49.224;12.074;2022-12-24T08:20:37;7.77;;;3.60;;
2840;SDS011;53423;49.224;12.074;2022-12-24T08:23:07;8.67;;;3.67;;
2840;SDS011;53423;49.224;12.074;2022-12-24T08:25:35;8.83;;;3.30;;
2840;SDS011;53423;49.224;12.074;2022-12-24T08:28:04;9.33;;;3.63;;
2840;SDS011;53423;49.224;12.074;2022-12-24T08:30:32;6.83;;;2.80;;
2840;SDS011;53423;49.224;12.074;2022-12-24T08:33:00;6.13;;;2.80;;
2840;SDS011;53423;49.224;12.074;2022-12-24T08:35:28;7.70;;;3.60;;
2840;SDS011;53423;49.224;12.074;2022-12-24T08:37:56;9.13;;;3.73;;
2840;SDS011;53423;49.224;12.074;2022-12-24T08:40:25;7.80;;;3.43;;
2840;SDS011;53423;49.224;12.074;2022-12-24T08:42:53;9.93;;;3.60;;
2840;SDS011;53423;49.224;12.074;2022-12-24T08:45:22;7.53;;;3.20;;
2840;SDS011;53423;49.224;12.074;2022-12-24T08:47:50;8.23;;;2.90;;
2840;SDS011;53423;49.224;12.074;2022-12-24T08:50:19;7.67;;;3.20;;
2840;SDS011;53423;49.224;12.074;2022-12-24T08:52:46;5.60;;;2.77;;
2840;SDS011;53423;49.224;12.074;2022-12-24T08:55:14;11.97;;;3.60;;
2840;SDS011;53423;49.224;12.074;2022-12-24T08:57:44;13.00;;;3.00;;
2840;SDS011;53423;49.224;12.074;2022-12-24T09:00:12;12.00;;;2.90;;
2840;SDS011;53423;49.224;12.074;2022-12-24T09:02:41;7.90;;;3.17;;
2840;SDS011;53423;49.224;12.074;2022-12-24T09:05:09;6.07;;;2.60;;
2840;SDS011;53423;49.224;12.074;2022-12-24T09:07:37;8.30;;;3.07;;
2840;SDS011;53423;49.224;12.074;2022-12-24T09:10:06;10.97;;;3.40;;
2840;SDS011;53423;49.224;12.074;2022-12-24T09:12:34;6.07;;;3.13;;
2840;SDS011;53423;49.224;12.074;2022-12-24T09:15:04;9.13;;;3.13;;
2840;SDS011;53423;49.224;12.074;2022-12-24T09:17:34;10.53;;;3.63;;
2840;SDS011;53423;49.224;12.074;2022-12-24T09:20:02;9.27;;;2.90;;
2840;SDS011;53423;49.224;12.074;2022-12-24T09:22:33;8.53;;;3.10;;
2840;SDS011;53423;49.224;12.074;2022-12-24T09:25:02;10.10;;;3.60;;
2840;SDS011;53423;49.224;12.074;2022-12-24T09:27:32;8.67;;;4.27;;
2840;SDS011;53423;49.224;12.074;2022-12-24T09:30:00;6.10;;;3.00;;
2840;SDS011;53423;49.224;12.074;2022-12-24T09:32:30;7.00;;;3.27;;
2840;SDS011;53423;49.224;12.074;2022-12-24T09:34:58;7.43;;;2.87;;
2840;SDS011;53423;49.224;12.074;2022-12-24T09:37:26;9.03;;;3.13;;
2840;SDS011;53423;49.224;12.074;2022-12-24T09:39:54;7.73;;;3.60;;
2840;SDS011;53423;49.224;12.074;2022-12-24T09:42:25;12.00;;;3.70;;
2840;SDS011;53423;49.224;12.074;2022-12-24T09:45:02;9.10;;;3.87;;
2840;SDS011;53423;49.224;12.074;2022-12-24T09:47:38;9.40;;;3.33;;
2840;SDS011;53423;49.224;12.074;2022-12-24T09:50:16;11.37;;;3.67;;
2840;SDS011;53423;49.224;12.074;2022-12-24T09:53:01;8.37;;;3.40;;
2840;SDS011;53423;49.224;12.074;2022-12-24T09:55:35;8.07;;;3.67;;
2840;SDS011;53423;49.224;12.074;2022-12-24T09:58:09;12.27;;;4.00;;
2840;SDS011;53423;49.224;12.074;2022-12-24T10:00:46;6.27;;;3.37;;
2840;SDS011;53423;49.224;12.074;2022-12-24T10:03:17;7.13;;;3.03;;
2840;SDS011;53423;49.224;12.074;2022-12-24T10:05:47;9.77;;;3.53;;
2840;SDS011;53423;49.224;12.074;2022-12-24T10:08:26;9.90;;;3.57;;
2840;SDS011;53423;49.224;12.074;2022-12-24T10:11:01;10.63;;;3.80;;
2840;SDS011;53423;49.224;12.074;2022-12-24T10:13:41;6.93;;;3.50;;
2840;SDS011;53423;49.224;12.074;2022-12-24T10:16:17;8.40;;;3.17;;
2840;SDS011;53423;49.224;12.074;2022-12-24T10:18:54;8.33;;;2.80;;
2840;SDS011;53423;49.224;12.074;2022-12-24T10:21:29;6.10;;;3.00;;
2840;SDS011;53423;49.224;12.074;2022-12-24T10:24:10;9.80;;;3.27;;
2840;SDS011;53423;49.224;12.074;2022-12-24T10:26:43;7.47;;;2.77;;
2840;SDS011;53423;49.224;12.074;2022-12-24T10:29:13;9.63;;;3.70;;
2840;SDS011;53423;49.224;12.074;2022-12-24T10:31:52;12.83;;;3.40;;
2840;SDS011;53423;49.224;12.074;2022-12-24T10:34:25;8.00;;;3.80;;
2840;SDS011;53423;49.224;12.074;2022-12-24T10:36:58;12.40;;;3.73;;
2840;SDS011;53423;49.224;12.074;2022-12-24T10:39:29;12.73;;;3.50;;
2840;SDS011;53423;49.224;12.074;2022-12-24T10:41:58;7.83;;;3.03;;
2840;SDS011;53423;49.224;12.074;2022-12-24T10:44:28;6.60;;;2.57;;
2840;SDS011;53423;49.224;12.074;2022-12-24T10:46:58;10.40;;;3.10;;
2840;SDS011;53423;49.224;12.074;2022-12-24T10:49:31;8.43;;;2.80;;
2840;SDS011;53423;49.224;12.074;2022-12-24T10:52:03;10.97;;;3.50;;
2840;SDS011;53423;49.224;12.074;2022-12-24T10:54:36;9.10;;;3.33;;
2840;SDS011;53423;49.224;12.074;2022-12-24T10:57:05;8.37;;;3.00;;
2840;SDS011;53423;49.224;12.074;2022-12-24T10:59:52;10.97;;;3.20;;
2840;SDS011;53423;49.224;12.074;2022-12-24T11:02:25;10.00;;;3.03;;
2840;SDS011;53423;49.224;12.074;2022-12-24T11:04:58;10.57;;;3.50;;
2840;SDS011;53423;49.224;12.074;2022-12-24T11:07:27;10.60;;;4.00;;
2840;SDS011;53423;49.224;12.074;2022-12-24T11:09:58;12.03;;;3.37;;
2840;SDS011;53423;49.224;12.074;2022-12-24T11:12:28;9.63;;;3.27;;
2840;SDS011;53423;49.224;12.074;2022-12-24T11:14:58;11.00;;;3.43;;
2840;SDS011;53423;49.224;12.074;2022-12-24T11:17:29;11.67;;;4.20;;
2840;SDS011;53423;49.224;12.074;2022-12-24T11:19:58;11.07;;;3.80;;
2840;SDS011;53423;49.224;12.074;2022-12-24T11:22:30;9.23;;;3.37;;
2840;SDS011;53423;49.224;12.074;2022-12-24T11:25:00;11.77;;;3.67;;
2840;SDS011;53423;49.224;12.074;2022-12-24T11:27:32;7.60;;;3.10;;
2840;SDS011;53423;49.224;12.074;2022-12-24T11:30:16;7.03;;;3.30;;
2840;SDS011;53423;49.224;12.074;2022-12-24T11:33:13;10.00;;;2.67;;
2840;SDS011;53423;49.224;12.074;2022-12-24T11:35:48;8.63;;;3.47;;
2840;SDS011;53423;49.224;12.074;2022-12-24T11:38:21;8.13;;;2.93;;
2840;SDS011;53423;49.224;12.074;2022-12-24T11:40:56;7.57;;;2.73;;
2840;SDS011;53423;49.224;12.074;2022-12-24T11:43:26;7.57;;;3.13;;
2840;SDS011;53423;49.224;12.074;2022-12-24T11:46:20;7.97;;;3.13;;
2840;SDS011;53423;49.224;12.074;2022-12-24T11:49:04;7.23;;;2.77;;
2840;SDS011;53423;49.224;12.074;2022-12-24T11:51:45;7.97;;;3.23;;
2840;SDS011;53423;49.224;12.074;2022-12-24T11:54:27;11.33;;;3.90;;
2840;SDS011;53423;49.224;12.074;2022-12-24T11:56:58;8.00;;;3.83;;
2840;SDS011;53423;49.224;12.074;2022-12-24T11:59:29;8.57;;;4.20;;
2840;SDS011;53423;49.224;12.074;2022-12-24T12:02:01;10.77;;;3.40;;
2840;SDS011;53423;49.224;12.074;2022-12-24T12:04:46;8.80;;;3.20;;
2840;SDS011;53423;49.224;12.074;2022-12-24T12:07:19;8.67;;;3.00;;
2840;SDS011;53423;49.224;12.074;2022-12-24T12:09:52;7.53;;;3.00;;
2840;SDS011;53423;49.224;12.074;2022-12-24T12:12:25;10.00;;;4.27;;
2840;SDS011;53423;49.224;12.074;2022-12-24T12:14:56;9.43;;;3.20;;
2840;SDS011;53423;49.224;12.074;2022-12-24T12:17:29;8.07;;;3.10;;
2840;SDS011;53423;49.224;12.074;2022-12-24T12:20:02;7.63;;;2.73;;
2840;SDS011;53423;49.224;12.074;2022-12-24T12:22:41;6.90;;;2.43;;
2840;SDS011;53423;49.224;12.074;2022-12-24T12:25:18;9.70;;;2.87;;
2840;SDS011;53423;49.224;12.074;2022-12-24T12:27:50;7.17;;;2.70;;
2840;SDS011;53423;49.224;12.074;2022-12-24T12:30:20;6.73;;;2.70;;
2840;SDS011;53423;49.224;12.074;2022-12-24T12:32:50;9.47;;;2.60;;
2840;SDS011;53423;49.224;12.074;2022-12-24T12:35:24;9.37;;;3.10;;
2840;SDS011;53423;49.224;12.074;2022-12-24T12:37:57;8.47;;;2.60;;
2840;SDS011;53423;49.224;12.074;2022-12-24T12:43:35;10.57;;;2.90;;
2840;SDS011;53423;49.224;12.074;2022-12-24T12:46:15;7.13;;;2.83;;
2840;SDS011;53423;49.224;12.074;2022-12-24T12:48:49;8.57;;;2.40;;
2840;SDS011;53423;49.224;12.074;2022-12-24T12:51:31;6.13;;;2.57;;
2840;SDS011;53423;49.224;12.074;2022-12-24T12:54:31;9.10;;;3.27;;
2840;SDS011;53423;49.224;12.074;2022-12-24T12:57:12;7.67;;;2.13;;
2840;SDS011;53423;49.224;12.074;2022-12-24T12:59:43;8.33;;;3.00;;
2840;SDS011;53423;49.224;12.074;2022-12-24T13:02:24;6.83;;;2.83;;
2840;SDS011;53423;49.224;12.074;2022-12-24T13:05:20;7.57;;;2.77;;
2840;SDS011;53423;49.224;12.074;2022-12-24T13:08:15;6.03;;;2.53;;
2840;SDS011;53423;49.224;12.074;2022-12-24T13:10:56;6.20;;;2.70;;
2840;SDS011;53423;49.224;12.074;2022-12-24T13:13:40;9.53;;;3.07;;
2840;SDS011;53423;49.224;12.074;2022-12-24T13:16:45;7.67;;;2.93;;
2840;SDS011;53423;49.224;12.074;2022-12-24T13:19:57;5.87;;;2.73;;
2840;SDS011;53423;49.224;12.074;2022-12-24T13:22:46;6.37;;;2.43;;
2840;SDS011;53423;49.224;12.074;2022-12-24T13:25:19;9.30;;;3.03;;
2840;SDS011;53423;49.224;12.074;2022-12-24T13:27:50;7.13;;;2.80;;
2840;SDS011;53423;49.224;12.074;2022-12-24T13:30:33;9.10;;;2.80;;
2840;SDS011;53423;49.224;12.074;2022-12-24T13:33:03;6.63;;;3.10;;
2840;SDS011;53423;49.224;12.074;2022-12-24T13:35:35;7.47;;;2.70;;
2840;SDS011;53423;49.224;12.074;2022-12-24T13:44:19;7.90;;;3.00;;
2840;SDS011;53423;49.224;12.074;2022-12-24T13:47:15;9.10;;;2.90;;
2840;SDS011;53423;49.224;12.074;2022-12-24T13:49:57;7.20;;;2.90;;
2840;SDS011;53423;49.224;12.074;2022-12-24T13:52:47;6.77;;;3.50;;
2840;SDS011;53423;49.224;12.074;2022-12-24T13:55:18;7.47;;;3.90;;
2840;SDS011;53423;49.224;12.074;2022-12-24T13:57:53;10.27;;;3.80;;
2840;SDS011;53423;49.224;12.074;2022-12-24T14:00:39;10.33;;;3.80;;
2840;SDS011;53423;49.224;12.074;2022-12-24T14:03:21;8.13;;;3.63;;
2840;SDS011;53423;49.224;12.074;2022-12-24T14:05:55;10.50;;;3.70;;
2840;SDS011;53423;49.224;12.074;2022-12-24T14:08:28;11.03;;;5.47;;
2840;SDS011;53423;49.224;12.074;2022-12-24T14:11:10;9.37;;;5.97;;
2840;SDS011;53423;49.224;12.074;2022-12-24T14:13:53;8.83;;;4.20;;
2840;SDS011;53423;49.224;12.074;2022-12-24T14:16:44;9.80;;;3.70;;
2840;SDS011;53423;49.224;12.074;2022-12-24T14:19:18;11.50;;;3.60;;
2840;SDS011;53423;49.224;12.074;2022-12-24T14:21:51;8.80;;;3.30;;
2840;SDS011;53423;49.224;12.074;2022-12-24T14:24:25;11.90;;;4.50;;
2840;SDS011;53423;49.224;12.074;2022-12-24T14:26:58;8.20;;;3.30;;
2840;SDS011;53423;49.224;12.074;2022-12-24T14:29:33;12.00;;;3.50;;
2840;SDS011;53423;49.224;12.074;2022-12-24T14:32:12;9.40;;;3.20;;
2840;SDS011;53423;49.224;12.074;2022-12-24T14:34:42;9.27;;;3.73;;
2840;SDS011;53423;49.224;12.074;2022-12-24T14:37:11;8.50;;;3.30;;
2840;SDS011;53423;49.224;12.074;2022-12-24T14:39:41;9.07;;;3.70;;
2840;SDS011;53423;49.224;12.074;2022-12-24T14:42:17;8.20;;;3.00;;
2840;SDS011;53423;49.224;12.074;2022-12-24T14:44:58;11.90;;;3.30;;
2840;SDS011;53423;49.224;12.074;2022-12-24T14:47:36;9.53;;;3.13;;
2840;SDS011;53423;49.224;12.074;2022-12-24T14:53:05;10.20;;;2.83;;
2840;SDS011;53423;49.224;12.074;2022-12-24T14:55:45;7.73;;;2.93;;
2840;SDS011;53423;49.224;12.074;2022-12-24T14:58:26;8.60;;;2.80;;
2840;SDS011;53423;49.224;12.074;2022-12-24T15:00:57;10.23;;;3.63;;
2840;SDS011;53423;49.224;12.074;2022-12-24T15:03:28;10.90;;;3.77;;
2840;SDS011;53423;49.224;12.074;2022-12-24T15:05:58;10.67;;;3.20;;
2840;SDS011;53423;49.224;12.074;2022-12-24T15:08:29;9.80;;;3.60;;
2840;SDS011;53423;49.224;12.074;2022-12-24T15:11:02;9.80;;;3.53;;
2840;SDS011;53423;49.224;12.074;2022-12-24T15:13:33;9.30;;;3.47;;
2840;SDS011;53423;49.224;12.074;2022-12-24T15:16:04;8.73;;;3.10;;
2840;SDS011;53423;49.224;12.074;2022-12-24T15:18:37;6.97;;;3.27;;
2840;SDS011;53423;49.224;12.074;2022-12-24T15:21:13;9.47;;;3.10;;
2840;SDS011;53423;49.224;12.074;2022-12-24T15:23:44;10.37;;;3.67;;
2840;SDS011;53423;49.224;12.074;2022-12-24T15:26:17;9.00;;;3.50;;
2840;SDS011;53423;49.224;12.074;2022-12-24T15:28:49;9.43;;;3.23;;